Time;durP1;ratioP1;P1;durP2;ratioP2;P2;SDS_P1;SDS_P2;PMS_P1;PMS_P2;Temp;Humidity;BMP_temperature;BMP_pressure;BME280_temperature;BME280_humidity;BME280_pressure;Samples;Min_cycle;Max_cycle;Signal;HPM_P1;HPM_P2
2022/05/22 00:20:46;;;;;;;6.15;2.83;;;9.50;99.90;;;;;;5115760;23;20556;-76
2022/05/22 00:23:12;;;;;;;5.90;2.78;;;9.40;99.90;;;;;;4914619;29;20107;-76
2022/05/22 00:25:37;;;;;;;7.88;3.33;;;9.30;99.90;;;;;;4932138;29;20032;-76
2022/05/22 00:28:03;;;;;;;7.60;3.22;;;9.40;99.90;;;;;;4932325;29;20493;-76
2022/05/22 00:30:29;;;;;;;7.40;3.28;;;9.40;99.90;;;;;;4931855;29;20031;-76
2022/05/22 00:32:55;;;;;;;6.65;2.80;;;9.50;99.90;;;;;;4931501;29;20039;-76
2022/05/22 00:35:20;;;;;;;7.47;3.35;;;9.70;99.90;;;;;;4932236;29;20397;-76
2022/05/22 00:37:46;;;;;;;13.02;4.28;;;9.70;99.90;;;;;;4932889;29;20032;-76
2022/05/22 00:40:12;;;;;;;7.45;3.00;;;9.70;99.90;;;;;;4932513;29;20494;-76
2022/05/22 00:42:38;;;;;;;6.00;2.90;;;9.70;99.90;;;;;;4932555;29;20039;-76
2022/05/22 00:45:06;;;;;;;7.50;3.20;;;9.70;99.90;;;;;;4933280;29;20062;-76
2022/05/22 00:47:31;;;;;;;8.13;3.08;;;9.80;99.90;;;;;;4932549;29;20031;-76
2022/05/22 00:50:00;;;;;;;9.85;3.00;;;9.80;99.90;;;;;;4912716;29;20031;-76
2022/05/22 00:52:42;;;;;;;4.97;2.83;;;9.80;99.90;;;;;;4932491;29;20027;-76
2022/05/22 00:55:15;;;;;;;6.38;3.42;;;9.70;99.90;;;;;;4928380;29;20028;-76
2022/05/22 00:57:43;;;;;;;7.72;3.42;;;9.70;99.90;;;;;;4932920;29;20052;-76
2022/05/22 01:00:14;;;;;;;10.65;4.97;;;9.60;99.90;;;;;;4932112;29;20441;-77
2022/05/22 01:05:24;;;;;;;7.32;3.60;;;9.50;99.90;;;;;;4926669;29;20549;-76
2022/05/22 01:07:50;;;;;;;10.70;3.85;;;9.50;99.90;;;;;;4932182;29;20023;-76
2022/05/22 01:10:17;;;;;;;7.95;3.47;;;9.40;99.90;;;;;;4932289;29;20495;-76
2022/05/22 01:12:44;;;;;;;7.20;3.65;;;9.40;99.90;;;;;;4932098;29;20050;-76
2022/05/22 01:15:12;;;;;;;12.98;4.10;;;9.30;99.90;;;;;;4932473;29;20026;-76
2022/05/22 01:17:41;;;;;;;8.18;2.92;;;9.30;99.90;;;;;;4925131;29;20075;-76
2022/05/22 02:19:40;;;;;;;4.82;2.50;;;8.40;99.90;;;;;;5674753;23;20394;-76
2022/05/22 02:22:06;;;;;;;3.72;2.30;;;8.40;99.90;;;;;;4934966;29;20035;-75
2022/05/22 02:24:32;;;;;;;4.45;2.83;;;8.40;99.90;;;;;;4935835;29;20666;-75
2022/05/22 02:26:57;;;;;;;8.50;2.45;;;8.30;99.90;;;;;;4935954;29;20030;-75
2022/05/22 02:29:24;;;;;;;8.57;2.67;;;8.20;99.90;;;;;;4932021;29;20425;-75
2022/05/22 02:31:50;;;;;;;4.82;2.67;;;8.20;99.90;;;;;;4917805;29;20111;-75
2022/05/22 02:34:16;;;;;;;5.03;3.03;;;8.20;99.90;;;;;;4917593;29;20043;-75
2022/05/22 02:36:41;;;;;;;7.20;3.15;;;8.20;99.90;;;;;;4917650;29;20043;-75
2022/05/22 02:39:07;;;;;;;3.58;2.03;;;8.20;99.90;;;;;;4917447;29;20084;-75
2022/05/22 02:41:33;;;;;;;5.03;2.47;;;8.20;99.90;;;;;;4917678;29;20031;-75
2022/05/22 02:43:59;;;;;;;5.80;2.40;;;8.10;99.90;;;;;;4917227;29;20123;-75
2022/05/22 02:46:24;;;;;;;4.18;2.35;;;8.10;99.90;;;;;;4917268;29;20036;-76
2022/05/22 02:48:51;;;;;;;3.83;2.28;;;8.00;99.90;;;;;;4916781;29;20043;-75
2022/05/22 02:51:19;;;;;;;4.00;2.22;;;7.90;99.90;;;;;;4915423;29;20024;-75
2022/05/22 02:53:45;;;;;;;3.05;2.67;;;7.90;99.90;;;;;;4900226;29;20039;-75
2022/05/22 02:56:14;;;;;;;6.57;2.50;;;7.90;99.90;;;;;;4917247;29;20040;-75
2022/05/22 02:58:40;;;;;;;5.10;2.25;;;7.90;99.90;;;;;;4910848;29;20024;-75
2022/05/22 03:01:06;;;;;;;5.32;2.22;;;7.80;99.90;;;;;;4917341;29;20028;-75
2022/05/22 03:03:32;;;;;;;3.33;2.30;;;7.80;99.90;;;;;;4916882;29;20466;-75
2022/05/22 03:08:43;;;;;;;4.38;2.67;;;7.80;99.90;;;;;;4911060;29;20100;-75
2022/05/22 03:11:09;;;;;;;5.95;2.25;;;7.90;99.90;;;;;;4917073;29;20024;-75
2022/05/22 03:13:35;;;;;;;3.83;2.85;;;8.00;99.90;;;;;;4917159;29;20473;-76
2022/05/22 03:16:01;;;;;;;3.65;2.00;;;8.10;99.90;;;;;;4916879;29;20474;-75
2022/05/22 03:18:27;;;;;;;6.80;2.97;;;8.10;99.90;;;;;;4916726;29;20028;-74
2022/05/22 04:19:06;;;;;;;4.25;2.35;;;7.80;99.90;;;;;;5961659;23;19922;-76
2022/05/22 04:21:32;;;;;;;2.70;2.08;;;7.90;99.90;;;;;;4931827;29;20024;-76
2022/05/22 04:26:41;;;;;;;6.95;2.08;;;8.00;99.90;;;;;;4933562;29;20058;-76
2022/05/22 04:29:07;;;;;;;5.07;2.47;;;8.00;99.90;;;;;;4931174;29;20464;-76
2022/05/22 04:31:33;;;;;;;7.65;2.88;;;8.10;99.90;;;;;;4896568;29;20028;-75
2022/05/22 04:33:59;;;;;;;8.10;2.80;;;8.20;99.90;;;;;;4896802;29;20028;-76
2022/05/22 04:36:24;;;;;;;6.22;2.50;;;8.20;99.90;;;;;;4896236;29;20035;-75
2022/05/22 04:38:50;;;;;;;10.18;3.30;;;8.30;99.90;;;;;;4896648;29;20052;-76
2022/05/22 04:41:17;;;;;;;8.30;2.88;;;8.30;99.90;;;;;;4896138;29;20039;-76
2022/05/22 04:43:43;;;;;;;15.80;4.07;;;8.30;99.90;;;;;;4896710;29;20394;-76
2022/05/22 04:46:09;;;;;;;14.00;4.20;;;8.30;99.90;;;;;;4896477;29;20028;-76
2022/05/22 04:48:35;;;;;;;9.82;3.40;;;8.40;99.90;;;;;;4896709;29;20084;-75
2022/05/22 04:51:01;;;;;;;11.50;3.17;;;8.50;99.90;;;;;;4899900;29;20035;-77
2022/05/22 04:53:28;;;;;;;7.38;3.08;;;8.60;99.90;;;;;;4896659;29;20029;-76
2022/05/22 04:55:54;;;;;;;11.85;3.03;;;8.70;99.90;;;;;;4896512;29;20068;-76
2022/05/22 04:58:20;;;;;;;9.75;3.22;;;8.70;99.90;;;;;;4896563;29;20032;-76
2022/05/22 05:00:46;;;;;;;8.98;2.83;;;8.80;99.90;;;;;;4895794;29;20537;-76
2022/05/22 05:03:13;;;;;;;12.15;3.95;;;8.80;99.90;;;;;;4895985;29;20446;-76
2022/05/22 05:05:39;;;;;;;12.07;3.95;;;8.80;99.90;;;;;;4900314;29;20112;-75
2022/05/22 05:08:05;;;;;;;17.15;4.05;;;8.80;99.90;;;;;;4896340;29;20084;-75
2022/05/22 05:10:31;;;;;;;10.30;4.18;;;8.90;99.90;;;;;;4896013;29;20025;-76
2022/05/22 05:12:57;;;;;;;16.38;3.97;;;9.00;99.90;;;;;;4896358;29;20055;-76
2022/05/22 05:15:24;;;;;;;8.52;3.25;;;9.20;99.90;;;;;;4896001;29;20534;-76
2022/05/22 05:17:50;;;;;;;8.63;3.33;;;9.30;99.90;;;;;;4878871;29;20028;-76
2022/05/22 06:19:55;;;;;;;7.55;3.08;;;12.40;99.90;;;;;;5723156;23;19969;-75
2022/05/22 06:22:22;;;;;;;5.65;2.47;;;12.80;99.90;;;;;;4948944;29;20111;-76
2022/05/22 06:24:49;;;;;;;5.43;2.25;;;13.00;99.90;;;;;;4955281;29;20023;-75
2022/05/22 06:27:14;;;;;;;4.18;1.83;;;13.10;99.90;;;;;;4955176;29;20019;-75
2022/05/22 06:29:42;;;;;;;8.93;2.90;;;13.20;99.90;;;;;;4950177;28;20361;-75
2022/05/22 06:32:10;;;;;;;7.53;2.85;;;13.30;99.90;;;;;;4936500;29;20036;-75
2022/05/22 06:34:40;;;;;;;6.43;2.53;;;13.60;99.90;;;;;;4919428;29;20030;-75
2022/05/22 06:37:10;;;;;;;6.70;3.35;;;13.80;99.90;;;;;;4936876;29;20559;-76
2022/05/22 06:39:50;;;;;;;8.10;3.33;;;14.00;99.90;;;;;;4936694;29;20040;-75
2022/05/22 06:42:22;;;;;;;8.25;3.15;;;14.20;99.90;;;;;;4936240;29;20086;-75
2022/05/22 06:44:55;;;;;;;7.38;2.88;;;14.40;99.90;;;;;;4936494;29;20066;-76
2022/05/22 06:47:23;;;;;;;7.30;2.88;;;14.60;99.90;;;;;;4934211;29;20505;-75
2022/05/22 06:49:50;;;;;;;5.53;2.70;;;14.70;99.90;;;;;;4930182;29;20028;-75
2022/05/22 06:52:15;;;;;;;10.43;3.78;;;14.70;99.90;;;;;;4933960;29;20075;-76
2022/05/22 06:54:42;;;;;;;8.75;3.40;;;14.80;99.90;;;;;;4927180;29;20032;-75
2022/05/22 06:57:08;;;;;;;10.45;3.53;;;15.00;99.90;;;;;;4926582;29;20047;-75
2022/05/22 06:59:34;;;;;;;11.10;4.18;;;15.20;99.90;;;;;;4928533;29;20051;-75
2022/05/22 07:02:00;;;;;;;8.35;3.50;;;15.20;99.90;;;;;;4930670;29;20078;-76
2022/05/22 07:04:26;;;;;;;13.48;3.83;;;15.20;99.90;;;;;;4928380;29;20036;-75
2022/05/22 07:06:52;;;;;;;6.82;3.58;;;15.20;99.90;;;;;;4928795;29;20059;-75
2022/05/22 07:09:18;;;;;;;10.50;3.97;;;15.30;99.90;;;;;;4926499;29;20074;-75
2022/05/22 07:11:45;;;;;;;10.75;4.40;;;15.50;99.90;;;;;;4929841;29;20511;-75
2022/05/22 07:14:16;;;;;;;13.98;5.35;;;15.30;99.90;;;;;;4930558;29;20023;-76
2022/05/22 07:16:42;;;;;;;13.05;5.20;;;15.40;99.90;;;;;;4936873;29;20119;-76
2022/05/22 08:21:25;;;;;;;9.43;3.25;;;15.50;99.90;;;;;;5053408;23;20051;-76
2022/05/22 08:23:50;;;;;;;9.77;3.78;;;15.60;99.90;;;;;;4935763;29;20046;-75
2022/05/22 08:26:16;;;;;;;10.93;4.97;;;15.70;99.90;;;;;;4935851;29;20046;-76
2022/05/22 08:28:42;;;;;;;10.43;3.92;;;15.90;99.90;;;;;;4953033;29;20118;-76
2022/05/22 08:31:07;;;;;;;11.00;4.45;;;16.20;99.90;;;;;;4906575;29;20492;-76
2022/05/22 08:33:34;;;;;;;10.02;4.35;;;16.80;99.90;;;;;;4921480;29;20186;-76
2022/05/22 08:36:00;;;;;;;7.40;3.00;;;17.20;99.90;;;;;;4921737;29;20048;-77
2022/05/22 08:38:26;;;;;;;8.57;3.28;;;18.10;99.90;;;;;;4919570;29;20047;-77
2022/05/22 08:41:10;;;;;;;7.55;2.33;;;18.80;99.90;;;;;;4917630;29;20020;-77
2022/05/22 08:43:54;;;;;;;2.63;1.55;;;19.90;99.90;;;;;;4921494;29;20031;-77
2022/05/22 08:46:35;;;;;;;7.70;2.10;;;21.20;99.90;;;;;;4922251;29;20099;-76
2022/05/22 08:49:20;;;;;;;4.93;2.20;;;22.10;99.50;;;;;;4921790;29;20020;-76
2022/05/22 08:51:50;;;;;;;6.47;2.08;;;22.40;93.20;;;;;;4917664;29;20016;-77
2022/05/22 08:54:33;;;;;;;5.28;1.60;;;22.30;92.60;;;;;;4928534;29;20031;-78
2022/05/22 08:59:50;;;;;;;4.80;1.50;;;23.90;84.20;;;;;;4924607;29;20039;-77
2022/05/22 09:02:48;;;;;;;3.75;1.42;;;25.00;77.10;;;;;;4916345;29;20032;-77
2022/05/22 09:05:20;;;;;;;10.40;2.13;;;25.70;72.70;;;;;;4846257;29;20063;-77
2022/05/22 09:07:52;;;;;;;8.77;1.63;;;25.60;68.90;;;;;;4915986;29;20661;-77
2022/05/22 09:10:45;;;;;;;5.13;1.25;;;25.40;69.00;;;;;;4915455;29;20084;-77
2022/05/22 09:13:23;;;;;;;8.02;1.60;;;26.10;68.50;;;;;;4921707;29;20023;-76
2022/05/22 09:16:14;;;;;;;3.85;0.95;;;27.10;68.60;;;;;;4916030;29;20119;-76
2022/05/22 09:19:10;;;;;;;4.15;0.82;;;27.70;63.70;;;;;;4915908;29;20031;-76
2022/05/22 10:21:41;;;;;;;4.35;0.90;;;30.40;43.70;;;;;;5213676;23;19949;-78
2022/05/22 10:24:15;;;;;;;3.25;0.77;;;30.50;44.40;;;;;;4890011;29;20531;-77
2022/05/22 10:26:41;;;;;;;5.22;1.13;;;31.60;43.80;;;;;;4932926;29;20028;-77
2022/05/22 10:29:16;;;;;;;1.48;0.52;;;31.90;43.40;;;;;;4925736;29;20046;-78
2022/05/22 10:31:59;;;;;;;4.80;0.82;;;32.10;41.00;;;;;;4915449;29;20505;-78
2022/05/22 10:35:06;;;;;;;1.85;0.30;;;32.10;41.80;;;;;;4914731;29;20020;-78
2022/05/22 10:37:35;;;;;;;3.42;0.50;;;31.90;40.90;;;;;;4908748;29;20040;-77
2022/05/22 10:40:05;;;;;;;3.58;0.50;;;31.80;40.20;;;;;;4915341;29;20032;-77
2022/05/22 10:42:49;;;;;;;6.07;1.00;;;30.70;40.60;;;;;;4918021;29;20028;-77
2022/05/22 10:45:37;;;;;;;0.90;0.35;;;30.70;42.20;;;;;;4917854;29;20585;-77
2022/05/22 10:48:12;;;;;;;2.35;0.32;;;32.20;39.20;;;;;;4917444;29;20024;-77
2022/05/22 10:51:09;;;;;;;1.75;0.40;;;32.30;37.30;;;;;;4914713;29;20625;-77
2022/05/22 10:53:48;;;;;;;1.27;0.22;;;32.60;37.10;;;;;;4917434;29;20032;-77
2022/05/22 10:56:14;;;;;;;2.60;0.30;;;32.60;33.90;;;;;;4917982;29;20028;-77
2022/05/22 10:58:51;;;;;;;2.22;0.38;;;31.50;32.70;;;;;;4917634;29;20390;-77
2022/05/22 11:01:19;;;;;;;0.20;0.10;;;32.10;37.30;;;;;;4917859;29;20020;-77
2022/05/22 11:03:45;;;;;;;2.22;0.30;;;31.60;32.70;;;;;;4917499;29;20384;-76
2022/05/22 11:06:20;;;;;;;1.20;0.30;;;31.50;34.90;;;;;;4909942;29;20024;-77
2022/05/22 11:08:54;;;;;;;0.88;0.10;;;31.70;28.80;;;;;;4900421;29;20402;-77
2022/05/22 11:11:28;;;;;;;1.05;0.10;;;31.40;31.40;;;;;;4900094;29;20052;-76
2022/05/22 11:14:06;;;;;;;1.05;0.20;;;31.00;28.00;;;;;;4916909;29;20028;-78
2022/05/22 11:16:31;;;;;;;1.13;0.40;;;30.50;31.60;;;;;;4910972;29;20107;-77
2022/05/22 11:19:15;;;;;;;0.70;0.10;;;31.50;34.60;;;;;;4899711;29;20108;-76
2022/05/22 12:21:48;;;;;;;1.85;0.20;;;33.90;30.40;;;;;;5168853;23;20065;-78
2022/05/22 12:24:23;;;;;;;1.38;0.57;;;35.40;32.60;;;;;;4914770;29;20031;-77
2022/05/22 12:26:50;;;;;;;1.48;0.22;;;36.50;31.00;;;;;;4909547;29;20031;-77
2022/05/22 12:29:27;;;;;;;0.50;0.10;;;35.20;26.70;;;;;;4929604;29;20024;-77
2022/05/22 12:31:58;;;;;;;2.28;0.30;;;35.20;31.30;;;;;;4917787;29;20492;-77
2022/05/22 12:34:34;;;;;;;1.23;0.15;;;35.90;27.30;;;;;;4920350;29;20032;-76
2022/05/22 12:37:02;;;;;;;1.65;0.10;;;36.70;28.10;;;;;;4897055;29;20112;-76
2022/05/22 12:39:33;;;;;;;2.13;0.10;;;36.50;25.30;;;;;;4915106;29;20016;-76
2022/05/22 12:42:20;;;;;;;0.52;0.25;;;35.20;26.70;;;;;;4914655;29;20492;-76
2022/05/22 12:44:46;;;;;;;0.10;0.10;;;34.50;27.60;;;;;;4908821;29;20048;-75
2022/05/22 12:47:15;;;;;;;1.90;0.32;;;34.00;28.80;;;;;;4914301;29;20016;-77
2022/05/22 12:49:53;;;;;;;3.45;0.90;;;33.80;30.10;;;;;;4914230;29;20489;-76
2022/05/22 12:52:28;;;;;;;0.85;0.10;;;33.70;29.00;;;;;;4911686;29;20024;-76
2022/05/22 12:54:56;;;;;;;0.10;0.00;;;33.10;27.90;;;;;;4914736;29;20028;-76
2022/05/22 12:57:22;;;;;;;0.57;0.17;;;34.10;27.60;;;;;;4914470;29;20024;-75
2022/05/22 12:59:52;;;;;;;1.90;0.10;;;34.90;28.00;;;;;;4914298;29;20043;-76
2022/05/22 13:02:41;;;;;;;1.30;0.10;;;36.00;28.40;;;;;;4913994;29;20035;-75
2022/05/22 13:05:29;;;;;;;0.68;0.20;;;37.00;27.70;;;;;;4911731;29;20071;-76
2022/05/22 13:07:56;;;;;;;2.90;0.20;;;37.20;27.30;;;;;;4904255;29;20027;-76
2022/05/22 13:10:43;;;;;;;0.10;0.00;;;36.60;25.90;;;;;;4904353;29;20055;-76
2022/05/22 13:13:12;;;;;;;0.43;0.10;;;36.80;28.20;;;;;;4906305;29;20021;-76
2022/05/22 13:16:01;;;;;;;1.92;0.50;;;36.40;25.40;;;;;;4903044;29;20035;-76
2022/05/22 13:18:28;;;;;;;1.35;0.63;;;35.90;25.30;;;;;;4908780;29;20020;-77
2022/05/22 14:20:29;;;;;;;1.35;0.20;;;33.60;27.60;;;;;;5642069;23;20051;-74
2022/05/22 14:23:21;;;;;;;1.00;0.30;;;32.90;29.20;;;;;;4931949;29;20027;-76
2022/05/22 14:26:00;;;;;;;1.40;0.10;;;33.80;30.10;;;;;;4950384;29;20027;-76
2022/05/22 14:28:28;;;;;;;0.82;0.10;;;35.10;28.00;;;;;;4949279;29;20047;-75
2022/05/22 14:30:54;;;;;;;0.30;0.10;;;35.30;28.40;;;;;;4945645;29;20024;-76
2022/05/22 14:33:21;;;;;;;1.90;0.20;;;35.80;28.50;;;;;;4937541;29;20024;-76
2022/05/22 14:36:06;;;;;;;1.00;0.30;;;36.90;28.30;;;;;;4937226;29;20024;-77
2022/05/22 14:38:37;;;;;;;0.32;0.10;;;37.90;28.40;;;;;;4931432;29;20042;-76
2022/05/22 14:41:27;;;;;;;0.25;0.10;;;37.40;28.30;;;;;;4937243;29;20016;-76
2022/05/22 14:43:56;;;;;;;1.95;0.10;;;36.50;27.90;;;;;;4930268;29;20067;-76
2022/05/22 14:46:35;;;;;;;0.30;0.20;;;35.50;27.60;;;;;;4937237;29;20024;-76
2022/05/22 14:49:10;;;;;;;0.85;0.10;;;33.70;28.80;;;;;;4933577;29;21370;-76
2022/05/22 14:51:41;;;;;;;1.83;0.25;;;33.70;33.20;;;;;;4913155;29;20038;-77
2022/05/22 14:54:37;;;;;;;2.88;0.35;;;33.00;29.30;;;;;;4927810;29;20027;-76
2022/05/22 14:57:27;;;;;;;0.80;0.17;;;31.90;32.70;;;;;;4901777;29;20031;-75
2022/05/22 15:00:04;;;;;;;0.73;0.28;;;31.80;32.50;;;;;;4937169;29;20032;-74
2022/05/22 15:02:50;;;;;;;1.10;0.20;;;31.30;30.20;;;;;;4936936;29;20015;-74
2022/05/22 15:05:24;;;;;;;0.55;0.20;;;30.40;33.30;;;;;;4934299;29;20039;-75
2022/05/22 15:07:59;;;;;;;2.08;0.10;;;30.40;31.80;;;;;;4932238;29;20111;-74
2022/05/22 15:10:31;;;;;;;2.90;0.20;;;30.20;35.20;;;;;;4936182;29;20048;-74
2022/05/22 15:13:03;;;;;;;1.17;0.20;;;29.90;31.90;;;;;;4943246;29;20033;-75
2022/05/22 15:15:33;;;;;;;1.38;0.30;;;30.10;31.90;;;;;;4936549;29;20030;-75
2022/05/22 15:18:01;;;;;;;0.20;0.10;;;30.40;32.60;;;;;;4936866;29;20103;-74
2022/05/22 16:20:09;;;;;;;0.90;0.10;;;23.10;53.10;;;;;;5907598;23;20276;-74
2022/05/22 16:22:39;;;;;;;0.90;0.30;;;22.90;51.60;;;;;;4949128;29;20129;-74
2022/05/22 16:25:07;;;;;;;0.90;0.47;;;22.90;51.70;;;;;;4950410;29;20031;-74
2022/05/22 16:27:33;;;;;;;2.28;0.10;;;22.90;50.20;;;;;;4949989;29;20041;-74
2022/05/22 16:29:59;;;;;;;1.13;0.15;;;22.80;46.40;;;;;;4947553;29;20097;-77
2022/05/22 16:32:25;;;;;;;2.13;0.20;;;23.00;48.70;;;;;;4931153;29;20027;-77
2022/05/22 16:34:51;;;;;;;0.10;0.10;;;23.20;47.00;;;;;;4931548;29;20074;-77
2022/05/22 16:37:17;;;;;;;1.48;0.20;;;22.80;47.00;;;;;;4931161;29;20083;-77
2022/05/22 16:39:43;;;;;;;0.45;0.10;;;22.40;47.50;;;;;;4931620;29;20480;-77
2022/05/22 16:42:09;;;;;;;0.77;0.22;;;22.40;45.30;;;;;;4931246;29;20062;-77
2022/05/22 16:44:34;;;;;;;0.50;0.15;;;22.40;47.40;;;;;;4913928;29;20044;-77
2022/05/22 16:53:01;;;;;;;0.20;0.10;;;22.30;47.50;;;;;;4930988;29;20051;-74
2022/05/22 16:55:17;;;;;;;1.38;0.22;;;21.40;48.70;;;;;;4931687;29;20429;-77
2022/05/22 16:57:43;;;;;;;1.02;0.25;;;21.40;50.30;;;;;;4932727;29;20023;-76
2022/05/22 17:00:10;;;;;;;0.95;0.25;;;21.50;52.90;;;;;;4932955;29;20024;-76
2022/05/22 17:02:36;;;;;;;0.90;0.30;;;21.50;52.30;;;;;;4934817;29;20015;-76
2022/05/22 17:05:02;;;;;;;0.85;0.30;;;21.40;49.50;;;;;;4934755;29;20039;-76
2022/05/22 17:07:28;;;;;;;0.57;0.28;;;21.20;50.30;;;;;;4933468;29;20024;-76
2022/05/22 17:09:59;;;;;;;0.70;0.20;;;21.30;51.00;;;;;;4934269;29;20031;-76
2022/05/22 17:12:28;;;;;;;0.90;0.30;;;21.20;51.30;;;;;;4934177;29;20024;-76
2022/05/22 17:14:54;;;;;;;0.22;0.20;;;21.20;50.70;;;;;;4939490;29;20135;-75
2022/05/22 17:17:20;;;;;;;1.05;0.30;;;20.80;53.10;;;;;;4934092;29;20028;-75
2022/05/22 18:22:08;;;;;;;2.28;0.40;;;18.30;67.90;;;;;;5048798;23;20056;-78
2022/05/22 18:27:22;;;;;;;1.25;0.30;;;17.90;71.70;;;;;;4948414;29;20077;-75
2022/05/22 18:29:48;;;;;;;2.63;0.43;;;17.80;74.00;;;;;;4948305;29;20030;-78
2022/05/22 18:32:37;;;;;;;0.95;0.50;;;17.70;75.10;;;;;;4910857;29;20056;-78
2022/05/22 18:35:05;;;;;;;2.45;0.80;;;17.70;75.70;;;;;;4910885;29;20047;-77
2022/05/22 18:37:31;;;;;;;2.47;0.43;;;17.60;77.70;;;;;;4910886;29;20024;-77
2022/05/22 18:39:57;;;;;;;2.97;0.65;;;17.50;79.40;;;;;;4911262;29;20540;-75
2022/05/22 18:42:24;;;;;;;1.73;0.80;;;17.50;79.70;;;;;;4910752;29;20032;-77
2022/05/22 18:44:52;;;;;;;2.80;0.90;;;17.50;80.40;;;;;;4911151;29;20076;-77
2022/05/22 18:47:21;;;;;;;1.13;0.55;;;17.30;82.00;;;;;;4910735;29;20052;-78
2022/05/22 18:49:47;;;;;;;3.80;0.90;;;17.30;91.30;;;;;;4910640;29;20115;-77
2022/05/22 18:52:14;;;;;;;1.45;0.73;;;17.10;90.10;;;;;;4913921;29;20059;-78
2022/05/22 18:54:40;;;;;;;1.58;0.70;;;17.10;87.90;;;;;;4911705;29;20060;-77
2022/05/22 18:57:07;;;;;;;1.02;0.80;;;17.00;91.30;;;;;;4910958;29;20066;-78
2022/05/22 18:59:34;;;;;;;1.88;0.98;;;16.90;91.70;;;;;;4911417;29;20024;-78
2022/05/22 19:01:59;;;;;;;4.32;0.77;;;16.90;92.70;;;;;;4913361;29;20016;-78
2022/05/22 19:04:27;;;;;;;3.03;0.70;;;16.90;92.60;;;;;;4897476;29;20095;-78
2022/05/22 19:06:58;;;;;;;1.67;0.95;;;16.80;93.90;;;;;;4914058;29;20031;-77
2022/05/22 19:09:25;;;;;;;3.22;1.10;;;16.70;96.60;;;;;;4917129;29;20031;-75
2022/05/22 19:11:58;;;;;;;2.15;0.95;;;16.70;97.20;;;;;;4917259;29;20024;-82
2022/05/22 19:14:25;;;;;;;0.73;0.63;;;16.60;98.30;;;;;;4916035;29;20028;-75
2022/05/22 19:16:51;;;;;;;1.42;0.60;;;16.50;99.90;;;;;;4916168;29;20033;-74
2022/05/22 19:19:17;;;;;;;2.42;0.80;;;16.50;99.90;;;;;;4916955;29;20107;-75
2022/05/22 20:20:35;;;;;;;;;;;14.10;99.90;;;;;;5779716;23;19930;-78
2022/05/22 20:23:01;;;;;;;1.90;0.98;;;14.10;99.90;;;;;;4927575;29;19931;-78
2022/05/22 20:25:28;;;;;;;1.80;0.57;;;14.00;99.90;;;;;;4913626;29;20485;-79
2022/05/22 20:27:55;;;;;;;2.33;0.68;;;14.00;99.90;;;;;;4931130;29;20027;-78
2022/05/22 20:30:22;;;;;;;3.13;0.63;;;14.10;99.90;;;;;;4924744;29;20032;-78
2022/05/22 20:32:48;;;;;;;0.93;0.60;;;14.00;99.90;;;;;;4907772;29;20104;-77
2022/05/22 20:35:16;;;;;;;1.70;0.98;;;14.00;99.90;;;;;;4912787;29;20020;-79
2022/05/22 20:37:42;;;;;;;1.80;0.75;;;13.90;99.90;;;;;;4913643;29;20032;-78
2022/05/22 20:40:10;;;;;;;0.95;0.68;;;13.90;99.90;;;;;;4909364;29;20032;-78
2022/05/22 20:42:38;;;;;;;1.80;0.70;;;13.80;99.90;;;;;;4908178;29;20029;-78
2022/05/22 20:45:06;;;;;;;1.02;0.80;;;13.70;99.90;;;;;;4910664;29;20028;-77
2022/05/22 20:47:34;;;;;;;1.88;0.90;;;13.70;99.90;;;;;;4913443;29;20051;-78
2022/05/22 20:50:05;;;;;;;1.15;0.82;;;13.60;99.90;;;;;;4912533;29;20063;-78
2022/05/22 20:52:32;;;;;;;2.13;0.90;;;13.60;99.90;;;;;;4912792;29;20087;-77
2022/05/22 20:54:58;;;;;;;2.53;0.80;;;13.60;99.90;;;;;;4895646;29;20028;-78
2022/05/22 20:57:24;;;;;;;3.10;1.38;;;13.60;99.90;;;;;;4919267;29;20028;-77
2022/05/22 20:59:50;;;;;;;1.60;0.80;;;13.70;99.90;;;;;;4913596;29;20035;-78
2022/05/22 21:02:18;;;;;;;1.00;0.95;;;13.70;99.90;;;;;;4913195;29;20043;-78
2022/05/22 21:04:45;;;;;;;1.27;1.05;;;13.70;99.90;;;;;;4912629;29;20040;-77
2022/05/22 21:07:26;;;;;;;3.25;0.85;;;13.60;99.90;;;;;;4912007;29;20021;-77
2022/05/22 21:09:52;;;;;;;1.75;0.75;;;13.60;99.90;;;;;;4913261;29;20060;-78
2022/05/22 21:12:19;;;;;;;1.27;1.10;;;13.60;99.90;;;;;;4911536;29;20024;-78
2022/05/22 21:14:49;;;;;;;6.18;1.10;;;13.60;99.90;;;;;;4912968;29;20040;-78
2022/05/22 21:17:19;;;;;;;1.58;0.73;;;13.70;99.90;;;;;;4913067;29;20080;-77
2022/05/22 21:19:45;;;;;;;0.70;0.60;;;13.70;99.90;;;;;;4906176;29;20088;-78
2022/05/22 21:22:11;;;;;;;2.72;1.10;;;13.60;99.90;;;;;;4888290;29;20048;-77
2022/05/22 21:30:08;;;;;;;1.95;0.95;;;13.40;99.90;;;;;;4907431;29;20038;-75
2022/05/22 21:32:34;;;;;;;1.08;0.98;;;13.30;99.90;;;;;;4902875;29;20031;-77
2022/05/22 21:35:00;;;;;;;2.10;0.88;;;13.40;99.90;;;;;;4909542;29;20028;-77
2022/05/22 21:37:26;;;;;;;1.27;0.98;;;13.30;99.90;;;;;;4908032;29;20031;-78
2022/05/22 21:39:52;;;;;;;1.10;0.93;;;13.40;99.90;;;;;;4906613;29;20029;-78
2022/05/22 21:42:18;;;;;;;1.58;1.00;;;13.40;99.90;;;;;;4906727;29;20051;-78
2022/05/22 21:44:47;;;;;;;2.65;1.20;;;13.40;99.90;;;;;;4901592;29;20028;-78
2022/05/22 21:47:13;;;;;;;2.30;0.90;;;13.30;99.90;;;;;;4903899;29;20024;-78
2022/05/22 21:49:40;;;;;;;1.30;1.20;;;13.30;99.90;;;;;;4902570;29;20036;-77
2022/05/22 21:52:08;;;;;;;1.30;0.80;;;13.30;99.90;;;;;;4903802;29;20033;-77
2022/05/22 21:54:35;;;;;;;1.92;1.30;;;13.20;99.90;;;;;;4886597;29;20394;-77
2022/05/22 21:57:02;;;;;;;1.63;1.25;;;13.10;99.90;;;;;;4891630;29;20396;-76
2022/05/22 21:59:31;;;;;;;2.50;1.10;;;13.10;99.90;;;;;;4902349;29;20080;-76
2022/05/22 22:01:58;;;;;;;1.38;0.98;;;13.00;99.90;;;;;;4901167;29;20172;-76
2022/05/22 22:04:29;;;;;;;4.97;1.23;;;13.00;99.90;;;;;;4905110;29;20037;-76
2022/05/22 22:07:01;;;;;;;2.60;1.25;;;12.90;99.90;;;;;;4901979;29;20088;-76
2022/05/22 22:09:28;;;;;;;2.92;1.13;;;12.90;99.90;;;;;;4886638;29;20032;-76
2022/05/22 22:11:54;;;;;;;3.45;1.52;;;12.80;99.90;;;;;;4883300;29;20028;-76
2022/05/22 22:14:20;;;;;;;2.55;1.50;;;12.80;99.90;;;;;;4903175;29;20652;-75
2022/05/22 22:16:46;;;;;;;2.22;1.17;;;12.80;99.90;;;;;;4907043;29;20032;-76
2022/05/22 22:19:11;;;;;;;2.58;1.30;;;12.80;99.90;;;;;;4888840;29;20032;-75
2022/05/22 22:21:40;;;;;;;4.35;1.60;;;12.70;99.90;;;;;;4887012;29;20489;-75
2022/05/22 22:24:12;;;;;;;3.60;1.13;;;12.70;99.90;;;;;;4904899;29;20067;-75
2022/05/22 22:26:37;;;;;;;;;;;12.70;99.90;;;;;;4907436;29;20031;-75
2022/05/22 22:29:03;;;;;;;2.95;1.45;;;12.70;99.90;;;;;;4911190;29;19907;-75
2022/05/22 22:31:29;;;;;;;1.35;1.15;;;12.70;99.90;;;;;;4913681;29;20024;-75
2022/05/22 22:33:56;;;;;;;1.88;1.55;;;12.60;99.90;;;;;;4911773;29;20032;-75
2022/05/22 22:36:24;;;;;;;4.55;1.70;;;12.50;99.90;;;;;;4914257;29;20028;-75
2022/05/22 22:38:50;;;;;;;4.18;1.17;;;12.50;99.90;;;;;;4917363;29;20024;-75
2022/05/22 22:41:20;;;;;;;1.67;1.05;;;12.50;99.90;;;;;;4917102;29;20390;-75
2022/05/22 22:43:46;;;;;;;1.77;1.38;;;12.50;99.90;;;;;;4915934;29;20044;-75
2022/05/22 22:46:12;;;;;;;3.47;1.42;;;12.50;99.90;;;;;;4916900;29;20031;-75
2022/05/22 22:48:39;;;;;;;1.73;1.33;;;12.40;99.90;;;;;;4916911;29;20402;-76
2022/05/22 23:50:42;;;;;;;3.65;2.03;;;12.80;99.90;;;;;;5777317;23;20121;-76
2022/05/22 23:53:09;;;;;;;2.50;1.73;;;12.80;99.90;;;;;;4972283;28;20121;-76
2022/05/22 23:55:35;;;;;;;3.13;1.88;;;12.80;99.90;;;;;;4961159;28;20053;-76
2022/05/22 23:58:02;;;;;;;1.88;1.65;;;12.80;99.90;;;;;;4953447;28;20376;-76
